Time;durP1;ratioP1;P1;durP2;ratioP2;P2;SDS_P1;SDS_P2;PMS_P1;PMS_P2;Temp;Humidity;BMP_temperature;BMP_pressure;BME280_temperature;BME280_humidity;BME280_pressure;Samples;Min_cycle;Max_cycle;Signal;HPM_P1;HPM_P2
2023/11/19 00:01:00;;;;;;;1.95;1.85;;;6.60;99.90;;;;;;5102528;28;20214;-65
2023/11/19 00:03:26;;;;;;;2.10;2.00;;;6.60;99.90;;;;;;5100437;28;20204;-65
2023/11/19 00:05:55;;;;;;;3.40;2.08;;;6.60;99.90;;;;;;5100759;28;20216;-64
2023/11/19 00:08:24;;;;;;;1.88;1.77;;;6.70;99.90;;;;;;5101688;28;20197;-66
2023/11/19 00:10:51;;;;;;;2.75;1.90;;;6.70;99.90;;;;;;5099539;28;20701;-66
2023/11/19 00:13:18;;;;;;;2.10;1.85;;;6.70;99.90;;;;;;5097283;28;20263;-65
2023/11/19 00:15:47;;;;;;;1.90;1.80;;;6.70;99.90;;;;;;5098603;28;20224;-65
2023/11/19 00:18:14;;;;;;;2.40;2.20;;;6.70;99.90;;;;;;5098128;28;20231;-65
2023/11/19 00:20:41;;;;;;;2.03;1.83;;;6.80;99.90;;;;;;5097311;28;20208;-64
2023/11/19 00:23:09;;;;;;;2.70;2.20;;;6.80;99.90;;;;;;5097644;28;20225;-64
2023/11/19 00:25:36;;;;;;;2.53;2.00;;;6.80;99.90;;;;;;5098295;28;20224;-66
2023/11/19 00:28:02;;;;;;;2.25;2.00;;;6.80;99.90;;;;;;5099578;28;20200;-64
2023/11/19 00:30:31;;;;;;;1.88;1.75;;;6.80;99.90;;;;;;5101942;28;20203;-64
2023/11/19 00:32:57;;;;;;;2.30;2.10;;;6.80;99.90;;;;;;5101365;28;20208;-66
2023/11/19 00:35:24;;;;;;;2.47;1.80;;;6.80;99.90;;;;;;5101658;28;20219;-64
2023/11/19 00:37:51;;;;;;;1.70;1.60;;;6.80;99.90;;;;;;5100870;28;20220;-65
2023/11/19 00:40:22;;;;;;;1.85;1.75;;;6.90;99.90;;;;;;5100032;28;20197;-66
2023/11/19 00:42:49;;;;;;;1.85;1.65;;;6.90;99.90;;;;;;5100878;28;20234;-66
2023/11/19 00:45:16;;;;;;;1.77;1.60;;;6.90;99.90;;;;;;5101568;28;20230;-64
2023/11/19 00:47:43;;;;;;;2.20;1.55;;;6.90;99.90;;;;;;5101423;28;20203;-66
2023/11/19 00:50:11;;;;;;;3.22;1.85;;;6.90;99.90;;;;;;5101292;28;20204;-66
2023/11/19 00:52:38;;;;;;;1.98;1.88;;;6.90;99.90;;;;;;5103405;28;20295;-65
2023/11/19 00:55:06;;;;;;;2.22;2.03;;;6.90;99.90;;;;;;5104591;28;20252;-66
2023/11/19 00:57:35;;;;;;;3.13;2.42;;;7.00;99.90;;;;;;5105588;28;20216;-65
2023/11/19 01:00:06;;;;;;;2.20;2.00;;;7.00;99.90;;;;;;5106587;28;20200;-65
2023/11/19 01:02:34;;;;;;;2.28;1.92;;;7.00;99.90;;;;;;5105491;28;20184;-65
2023/11/19 01:05:01;;;;;;;1.90;1.80;;;7.00;99.90;;;;;;5105376;28;20224;-65
2023/11/19 01:07:28;;;;;;;4.28;1.80;;;7.10;99.90;;;;;;5102025;28;20196;-66
2023/11/19 01:09:54;;;;;;;1.63;1.52;;;7.10;99.90;;;;;;5099839;28;20201;-66
2023/11/19 01:12:21;;;;;;;2.10;1.90;;;7.10;99.90;;;;;;5098579;28;20587;-65
2023/11/19 01:14:49;;;;;;;2.15;1.35;;;7.10;99.90;;;;;;5099351;28;20220;-64
2023/11/19 01:17:17;;;;;;;2.35;1.80;;;7.20;99.90;;;;;;5098174;28;20227;-64
2023/11/19 01:19:44;;;;;;;1.92;1.80;;;7.20;99.90;;;;;;5098980;28;20208;-65
2023/11/19 01:22:10;;;;;;;2.92;1.92;;;7.20;99.90;;;;;;5098719;28;20196;-65
2023/11/19 01:24:37;;;;;;;2.70;1.80;;;7.30;99.90;;;;;;5098319;28;20597;-66
2023/11/19 01:27:04;;;;;;;1.67;1.50;;;7.30;99.90;;;;;;5099354;28;20201;-64
2023/11/19 01:29:31;;;;;;;1.98;1.85;;;7.40;99.90;;;;;;5100276;28;20239;-66
2023/11/19 01:31:59;;;;;;;1.65;1.55;;;7.40;99.90;;;;;;5101293;28;20204;-65
2023/11/19 01:34:26;;;;;;;1.70;1.30;;;7.40;99.90;;;;;;5102320;28;20219;-64
2023/11/19 01:36:52;;;;;;;2.17;1.60;;;7.50;99.90;;;;;;5102577;28;20291;-64
2023/11/19 01:39:19;;;;;;;1.85;1.70;;;7.50;99.90;;;;;;5102067;28;20208;-65
2023/11/19 01:41:46;;;;;;;1.38;1.27;;;7.50;99.90;;;;;;5100316;28;20284;-66
2023/11/19 01:44:13;;;;;;;2.60;1.42;;;7.60;99.90;;;;;;5100111;28;20201;-65
2023/11/19 01:46:42;;;;;;;1.30;1.20;;;7.60;99.90;;;;;;5103692;28;20230;-65
2023/11/19 01:49:11;;;;;;;1.30;1.20;;;7.60;99.90;;;;;;5105363;28;20196;-65
2023/11/19 01:51:40;;;;;;;2.30;1.60;;;7.60;99.90;;;;;;5102636;28;20208;-65
2023/11/19 01:54:07;;;;;;;1.88;1.67;;;7.70;99.90;;;;;;5102761;28;20715;-65
2023/11/19 01:56:35;;;;;;;3.15;1.42;;;7.70;99.90;;;;;;5102571;28;20262;-65
2023/11/19 01:59:03;;;;;;;4.18;1.40;;;7.70;99.90;;;;;;5101065;28;20224;-66
2023/11/19 02:01:32;;;;;;;1.60;1.50;;;7.80;99.90;;;;;;5101367;28;20208;-66
2023/11/19 02:03:59;;;;;;;1.88;1.35;;;7.80;99.90;;;;;;5100488;28;20203;-66
2023/11/19 02:06:28;;;;;;;1.80;1.70;;;7.80;99.90;;;;;;5100191;28;20204;-65
2023/11/19 02:08:55;;;;;;;1.30;1.15;;;7.80;99.90;;;;;;5099537;28;20196;-66
2023/11/19 02:11:22;;;;;;;1.35;1.25;;;7.80;99.90;;;;;;5100411;28;20223;-65
2023/11/19 02:13:49;;;;;;;1.30;1.20;;;7.90;99.90;;;;;;5100825;28;20208;-65
2023/11/19 02:16:15;;;;;;;1.30;1.10;;;7.90;99.90;;;;;;5099704;28;20220;-65
2023/11/19 02:18:42;;;;;;;1.25;1.10;;;7.90;99.90;;;;;;5098386;28;20228;-66
2023/11/19 02:21:10;;;;;;;3.63;1.30;;;7.90;99.90;;;;;;5098401;28;20201;-65
2023/11/19 02:23:38;;;;;;;1.38;1.27;;;8.00;99.90;;;;;;5097331;28;20200;-65
2023/11/19 02:26:14;;;;;;;1.10;1.00;;;8.00;99.90;;;;;;5096616;28;20230;-66
2023/11/19 02:28:43;;;;;;;3.17;1.30;;;8.00;99.90;;;;;;5096408;28;20634;-66
2023/11/19 02:31:10;;;;;;;0.93;0.90;;;8.00;99.90;;;;;;5096835;28;20215;-67
2023/11/19 02:33:37;;;;;;;0.80;0.80;;;8.10;99.90;;;;;;5096840;28;20257;-66
2023/11/19 02:36:05;;;;;;;0.80;0.80;;;8.10;99.90;;;;;;5101811;28;20231;-66
2023/11/19 02:38:31;;;;;;;1.20;0.80;;;8.10;99.90;;;;;;5105173;28;20242;-66
2023/11/19 02:40:58;;;;;;;0.70;0.70;;;8.10;99.90;;;;;;5104881;28;20564;-66
2023/11/19 02:43:25;;;;;;;0.85;0.80;;;8.20;99.90;;;;;;5106746;28;20548;-66
2023/11/19 02:45:55;;;;;;;1.20;1.00;;;8.20;99.90;;;;;;5107308;28;20225;-66
2023/11/19 02:48:22;;;;;;;1.30;0.93;;;8.20;99.90;;;;;;5106143;28;20242;-66
2023/11/19 02:50:49;;;;;;;1.10;1.00;;;8.20;99.90;;;;;;5103322;28;20208;-66
2023/11/19 02:53:16;;;;;;;0.85;0.77;;;8.20;99.90;;;;;;5103355;28;20197;-65
2023/11/19 02:55:49;;;;;;;1.02;0.93;;;8.30;99.90;;;;;;5100738;28;20227;-65
2023/11/19 02:58:23;;;;;;;1.10;1.00;;;8.30;99.90;;;;;;5099578;28;20226;-66
2023/11/19 03:00:56;;;;;;;1.00;0.90;;;8.30;99.90;;;;;;5096803;28;20189;-65
2023/11/19 03:03:28;;;;;;;1.23;1.05;;;8.30;99.90;;;;;;5096159;28;20252;-66
2023/11/19 03:05:55;;;;;;;1.15;0.93;;;8.30;99.90;;;;;;5096263;28;20333;-65
2023/11/19 03:08:23;;;;;;;0.80;0.77;;;8.30;99.90;;;;;;5095928;28;20207;-64
2023/11/19 03:10:50;;;;;;;0.98;0.93;;;8.40;99.90;;;;;;5095743;28;20204;-66
2023/11/19 03:13:17;;;;;;;0.93;0.90;;;8.40;99.90;;;;;;5095241;28;20201;-65
2023/11/19 03:15:44;;;;;;;0.70;0.60;;;8.40;99.90;;;;;;5095015;28;20227;-65
2023/11/19 03:18:11;;;;;;;2.67;0.85;;;8.40;99.90;;;;;;5095013;28;20311;-67
2023/11/19 03:20:39;;;;;;;2.17;1.00;;;8.40;99.90;;;;;;5095425;28;20204;-66
2023/11/19 03:23:06;;;;;;;1.20;1.10;;;8.50;99.90;;;;;;5094820;28;20204;-67
2023/11/19 03:25:34;;;;;;;2.20;1.05;;;8.50;99.90;;;;;;5094605;28;20220;-66
2023/11/19 03:28:01;;;;;;;2.03;0.90;;;8.50;99.90;;;;;;5095292;28;20283;-66
2023/11/19 03:30:29;;;;;;;1.08;0.98;;;8.60;99.90;;;;;;5095063;28;20203;-66
2023/11/19 03:32:56;;;;;;;1.25;1.00;;;8.60;99.90;;;;;;5095331;28;20204;-65
2023/11/19 03:35:22;;;;;;;1.25;1.15;;;8.60;99.90;;;;;;5094983;28;20230;-66
2023/11/19 03:37:51;;;;;;;1.45;1.20;;;8.60;99.90;;;;;;5094937;28;20220;-65
2023/11/19 03:40:18;;;;;;;1.20;0.80;;;8.60;99.90;;;;;;5095418;28;20249;-65
2023/11/19 03:42:45;;;;;;;1.10;1.00;;;8.60;99.90;;;;;;5095007;28;20204;-65
2023/11/19 03:45:12;;;;;;;0.90;0.80;;;8.70;99.90;;;;;;5095317;28;20220;-65
2023/11/19 03:47:38;;;;;;;1.10;1.00;;;8.70;99.90;;;;;;5096437;28;20578;-66
2023/11/19 03:50:07;;;;;;;1.20;1.10;;;8.70;99.90;;;;;;5096873;28;20283;-67
2023/11/19 03:52:34;;;;;;;1.40;1.30;;;8.70;99.90;;;;;;5095258;28;20446;-66
2023/11/19 03:55:02;;;;;;;1.55;1.30;;;8.80;99.90;;;;;;5096133;28;20228;-66
2023/11/19 03:57:29;;;;;;;1.27;1.17;;;8.80;99.90;;;;;;5100482;28;20222;-66
2023/11/19 03:59:58;;;;;;;1.70;1.50;;;8.80;99.90;;;;;;5102543;28;20196;-66
2023/11/19 04:02:27;;;;;;;1.52;1.40;;;8.90;99.90;;;;;;5101646;28;20215;-65
2023/11/19 04:04:54;;;;;;;1.75;1.65;;;8.90;99.90;;;;;;5100578;28;20732;-66
2023/11/19 04:07:21;;;;;;;1.65;1.40;;;8.90;99.90;;;;;;5099665;28;20666;-66
2023/11/19 04:12:32;;;;;;;2.75;1.65;;;9.00;99.90;;;;;;5113746;27;1250208;-65
2023/11/19 04:14:59;;;;;;;1.50;1.40;;;9.00;99.90;;;;;;5126292;28;20216;-65
2023/11/19 04:17:26;;;;;;;2.80;2.20;;;9.00;99.90;;;;;;5114536;28;20203;-65
2023/11/19 04:19:53;;;;;;;2.03;1.92;;;9.00;99.90;;;;;;5114447;28;20210;-65
2023/11/19 04:22:19;;;;;;;2.15;1.75;;;9.10;99.90;;;;;;5114017;28;20207;-65
2023/11/19 04:24:52;;;;;;;3.75;2.00;;;9.10;99.90;;;;;;5113194;28;20224;-65
2023/11/19 04:27:19;;;;;;;3.13;2.05;;;9.10;99.90;;;;;;5111610;28;20199;-66
2023/11/19 04:29:48;;;;;;;3.47;2.20;;;9.20;99.90;;;;;;5111293;28;20199;-66
2023/11/19 04:32:15;;;;;;;2.28;2.08;;;9.30;99.90;;;;;;5110877;28;20219;-65
2023/11/19 04:34:42;;;;;;;2.40;2.20;;;9.20;99.90;;;;;;5111087;28;20215;-66
2023/11/19 04:37:09;;;;;;;3.08;2.28;;;9.30;99.90;;;;;;5111157;28;20195;-66
2023/11/19 04:39:36;;;;;;;2.22;2.03;;;9.30;99.90;;;;;;5110671;28;20286;-66
2023/11/19 04:42:06;;;;;;;2.90;2.67;;;9.30;99.90;;;;;;5110838;28;20562;-65
2023/11/19 04:44:33;;;;;;;3.10;2.67;;;9.40;99.90;;;;;;5110879;28;20224;-67
2023/11/19 04:47:01;;;;;;;2.83;2.43;;;9.40;99.90;;;;;;5110653;28;20215;-67
2023/11/19 04:49:28;;;;;;;3.58;2.70;;;9.40;99.90;;;;;;5110204;28;20984;-66
2023/11/19 04:51:54;;;;;;;3.17;2.87;;;9.40;99.90;;;;;;5110405;28;20750;-65
2023/11/19 04:54:21;;;;;;;6.07;3.35;;;9.50;99.90;;;;;;5110044;28;20466;-64
2023/11/19 04:56:48;;;;;;;4.57;3.23;;;9.50;99.90;;;;;;5110378;28;20208;-66
2023/11/19 04:59:15;;;;;;;5.37;3.23;;;9.50;99.90;;;;;;5109990;28;20449;-63
2023/11/19 05:01:42;;;;;;;4.70;3.85;;;9.50;99.90;;;;;;5110126;28;20442;-65
2023/11/19 05:04:10;;;;;;;3.80;3.50;;;9.50;99.90;;;;;;5110265;28;20222;-65
2023/11/19 05:06:37;;;;;;;4.80;3.53;;;9.60;99.90;;;;;;5110397;28;20244;-65
2023/11/19 05:09:07;;;;;;;5.83;3.80;;;9.60;99.90;;;;;;5110315;28;20200;-65
2023/11/19 05:11:34;;;;;;;4.27;3.87;;;9.60;99.90;;;;;;5109882;28;20478;-64
2023/11/19 05:14:01;;;;;;;7.00;4.80;;;9.60;99.90;;;;;;5110285;28;20442;-64
2023/11/19 05:16:27;;;;;;;5.27;4.77;;;9.60;99.90;;;;;;5110255;28;20809;-65
2023/11/19 05:18:54;;;;;;;6.37;4.73;;;9.70;99.90;;;;;;5109556;28;20442;-65
2023/11/19 05:21:23;;;;;;;7.10;4.10;;;9.70;99.90;;;;;;5110056;28;20438;-65
2023/11/19 05:23:50;;;;;;;5.10;4.40;;;9.70;99.90;;;;;;5096646;28;20812;-65
2023/11/19 05:26:21;;;;;;;5.57;5.07;;;9.70;99.90;;;;;;5096509;28;20454;-66
2023/11/19 05:28:48;;;;;;;6.37;5.23;;;9.70;99.90;;;;;;5097698;28;20948;-66
2023/11/19 05:31:17;;;;;;;6.37;5.77;;;9.70;99.90;;;;;;5096328;28;20478;-65
2023/11/19 05:33:44;;;;;;;8.57;6.50;;;9.80;99.90;;;;;;5096334;28;20449;-66
2023/11/19 05:36:13;;;;;;;7.60;5.90;;;9.80;99.90;;;;;;5095916;28;20470;-65
2023/11/19 05:38:41;;;;;;;8.93;6.53;;;9.80;99.90;;;;;;5096044;28;20447;-65
2023/11/19 05:41:08;;;;;;;10.73;6.97;;;9.80;99.90;;;;;;5096346;28;20446;-65
2023/11/19 05:43:35;;;;;;;9.20;6.77;;;9.80;99.90;;;;;;5095948;28;20202;-65
2023/11/19 05:46:02;;;;;;;8.83;7.23;;;9.80;99.90;;;;;;5095836;28;20494;-65
2023/11/19 05:48:29;;;;;;;11.83;8.07;;;9.90;99.90;;;;;;5095645;28;20439;-65
2023/11/19 05:50:55;;;;;;;9.43;7.87;;;9.90;99.90;;;;;;5095898;28;20478;-65
2023/11/19 05:53:22;;;;;;;18.83;10.17;;;10.00;99.90;;;;;;5095756;28;20442;-65
2023/11/19 05:55:55;;;;;;;11.13;8.93;;;10.00;99.90;;;;;;5095560;28;20459;-65
2023/11/19 05:58:25;;;;;;;10.63;8.20;;;10.10;99.90;;;;;;5096032;28;20798;-65
2023/11/19 06:00:52;;;;;;;16.73;9.80;;;10.10;99.90;;;;;;5097391;28;20533;-65
2023/11/19 06:03:18;;;;;;;14.80;9.40;;;10.20;99.90;;;;;;5096221;28;20438;-65
2023/11/19 06:05:46;;;;;;;18.60;10.00;;;10.20;99.90;;;;;;5096106;28;20454;-65
2023/11/19 06:08:14;;;;;;;12.07;8.77;;;10.30;99.90;;;;;;5097019;28;20451;-65
2023/11/19 06:10:41;;;;;;;16.43;10.53;;;10.40;99.90;;;;;;5097695;28;20962;-66
2023/11/19 06:13:10;;;;;;;14.73;10.40;;;10.50;99.90;;;;;;5095653;28;20429;-65
2023/11/19 06:15:37;;;;;;;16.13;10.53;;;10.70;99.90;;;;;;5095633;28;20497;-66
2023/11/19 06:18:04;;;;;;;14.83;9.80;;;10.70;99.90;;;;;;5102014;28;20504;-65
2023/11/19 06:20:31;;;;;;;15.10;9.60;;;10.90;99.90;;;;;;5095686;28;20468;-64
2023/11/19 06:22:59;;;;;;;12.03;9.33;;;10.90;99.90;;;;;;5096155;28;20482;-65
2023/11/19 06:25:25;;;;;;;11.57;8.83;;;11.00;99.90;;;;;;5102835;28;20469;-66
2023/11/19 06:27:53;;;;;;;14.60;9.23;;;11.10;99.90;;;;;;5098422;28;20807;-65
2023/11/19 06:30:21;;;;;;;12.07;7.80;;;11.10;99.90;;;;;;5097695;28;20518;-65
2023/11/19 06:32:48;;;;;;;12.13;8.40;;;11.20;99.90;;;;;;5096434;28;21030;-64
2023/11/19 06:35:15;;;;;;;16.00;9.10;;;11.20;99.90;;;;;;5093964;28;20466;-64
2023/11/19 06:37:42;;;;;;;10.13;7.20;;;11.20;99.90;;;;;;5095826;28;20439;-65
2023/11/19 06:40:10;;;;;;;14.87;6.57;;;11.30;99.90;;;;;;5095384;28;20445;-64
2023/11/19 06:42:37;;;;;;;10.20;6.20;;;11.30;99.90;;;;;;5095049;28;20481;-64
2023/11/19 06:45:04;;;;;;;8.43;6.60;;;11.40;99.90;;;;;;5094913;28;20462;-65
2023/11/19 06:47:32;;;;;;;12.60;6.10;;;11.40;99.90;;;;;;5094815;28;20442;-65
2023/11/19 06:49:59;;;;;;;15.80;6.37;;;11.40;99.90;;;;;;5094924;28;20441;-64
2023/11/19 06:52:26;;;;;;;12.70;6.13;;;11.50;99.90;;;;;;5094718;28;20490;-65
2023/11/19 06:54:53;;;;;;;11.50;5.03;;;11.50;99.90;;;;;;5094616;28;20458;-65
2023/11/19 06:57:20;;;;;;;9.67;5.27;;;11.50;99.90;;;;;;5095062;28;20442;-65
2023/11/19 06:59:47;;;;;;;7.57;5.87;;;11.50;99.90;;;;;;5094705;28;20438;-65
2023/11/19 07:02:14;;;;;;;15.50;5.97;;;11.50;99.90;;;;;;5094814;28;20521;-65
2023/11/19 07:04:42;;;;;;;10.80;6.40;;;11.50;99.90;;;;;;5094879;28;21060;-65
2023/11/19 07:07:09;;;;;;;12.13;5.33;;;11.50;99.90;;;;;;5095873;28;20452;-64
2023/11/19 07:09:37;;;;;;;6.57;4.70;;;11.50;99.90;;;;;;5095329;28;21014;-65
2023/11/19 07:12:04;;;;;;;8.73;4.17;;;11.50;99.90;;;;;;5094685;28;20517;-65
2023/11/19 07:14:31;;;;;;;10.37;5.00;;;11.60;99.90;;;;;;5098561;28;20488;-65
2023/11/19 07:16:58;;;;;;;12.67;4.40;;;11.60;99.90;;;;;;5102819;28;20796;-65
2023/11/19 07:19:25;;;;;;;15.63;6.00;;;11.50;99.90;;;;;;5102894;28;20860;-66
2023/11/19 07:21:54;;;;;;;13.20;4.83;;;11.40;99.90;;;;;;5101387;28;20453;-65
2023/11/19 07:24:21;;;;;;;12.40;4.93;;;11.40;99.90;;;;;;5097260;28;20496;-65
2023/11/19 07:26:48;;;;;;;15.87;4.20;;;11.30;99.90;;;;;;5104620;28;20439;-67
2023/11/19 07:29:16;;;;;;;10.33;4.20;;;11.30;99.90;;;;;;5104155;28;20466;-64
2023/11/19 07:31:44;;;;;;;13.30;4.20;;;11.30;99.90;;;;;;5098430;28;20520;-65
2023/11/19 07:34:11;;;;;;;16.10;4.37;;;11.40;99.90;;;;;;5098100;28;20447;-65
2023/11/19 07:36:38;;;;;;;8.23;3.67;;;11.50;99.90;;;;;;5095471;28;20449;-65
2023/11/19 07:39:07;;;;;;;14.93;4.43;;;11.50;99.90;;;;;;5095385;28;20442;-64
2023/11/19 07:41:34;;;;;;;14.83;4.10;;;11.60;99.90;;;;;;5095178;28;20526;-66
2023/11/19 07:44:01;;;;;;;16.40;4.37;;;11.60;99.90;;;;;;5094288;28;20940;-66
2023/11/19 07:46:28;;;;;;;13.27;4.33;;;11.60;99.90;;;;;;5094187;28;20447;-65
2023/11/19 07:48:54;;;;;;;14.17;3.80;;;11.70;99.90;;;;;;5097857;28;20438;-64
2023/11/19 07:51:21;;;;;;;14.97;4.40;;;11.70;99.90;;;;;;5097728;28;20451;-65
2023/11/19 07:53:49;;;;;;;11.23;4.17;;;11.80;99.90;;;;;;5098534;28;20442;-64
2023/11/19 07:56:17;;;;;;;20.13;4.33;;;11.80;99.90;;;;;;5100260;28;20470;-64
2023/11/19 07:58:43;;;;;;;14.63;4.20;;;11.80;99.90;;;;;;5099069;28;20449;-65
2023/11/19 08:01:10;;;;;;;14.93;4.30;;;11.80;99.90;;;;;;5094352;28;20442;-65
2023/11/19 08:03:37;;;;;;;13.00;3.53;;;11.80;99.90;;;;;;5094199;28;20434;-65
2023/11/19 08:06:05;;;;;;;11.30;3.93;;;11.80;99.90;;;;;;5093957;28;20462;-65
2023/11/19 08:08:33;;;;;;;17.97;3.93;;;11.90;99.90;;;;;;5093935;28;20448;-64
2023/11/19 08:11:00;;;;;;;20.10;4.53;;;11.90;99.90;;;;;;5093968;28;20458;-65
2023/11/19 08:13:28;;;;;;;14.83;3.90;;;12.00;99.90;;;;;;5094902;28;20462;-65
2023/11/19 08:15:55;;;;;;;13.00;4.70;;;12.10;99.90;;;;;;5094586;28;20455;-65
2023/11/19 08:18:22;;;;;;;19.97;4.40;;;12.10;99.90;;;;;;5094421;28;20442;-66
2023/11/19 08:20:52;;;;;;;11.33;5.73;;;12.10;99.90;;;;;;5094172;28;20431;-63
2023/11/19 08:23:19;;;;;;;15.67;4.30;;;12.20;99.90;;;;;;5093629;28;20445;-65
2023/11/19 08:25:46;;;;;;;13.97;4.70;;;12.20;99.90;;;;;;5094882;28;20470;-66
2023/11/19 08:28:13;;;;;;;11.90;4.40;;;12.10;99.90;;;;;;5095117;28;20434;-66
2023/11/19 08:30:41;;;;;;;17.80;4.50;;;12.10;99.90;;;;;;5095233;28;20442;-66
2023/11/19 08:33:08;;;;;;;12.33;3.90;;;12.00;99.90;;;;;;5094527;28;21026;-67
2023/11/19 08:35:34;;;;;;;15.63;3.90;;;12.00;99.90;;;;;;5095081;28;20454;-67
2023/11/19 08:38:01;;;;;;;16.77;4.73;;;12.00;99.90;;;;;;5095026;28;20442;-66
2023/11/19 08:40:29;;;;;;;22.17;4.77;;;12.00;99.90;;;;;;5094265;28;20437;-66
2023/11/19 08:42:56;;;;;;;23.53;4.73;;;12.00;99.90;;;;;;5095255;28;20509;-66
2023/11/19 08:45:23;;;;;;;13.20;4.80;;;12.00;99.90;;;;;;5094104;28;20467;-67
2023/11/19 08:47:51;;;;;;;18.37;4.40;;;12.00;99.90;;;;;;5095666;28;20487;-67
2023/11/19 08:50:18;;;;;;;16.57;4.60;;;12.00;99.90;;;;;;5096296;28;20449;-66
2023/11/19 08:52:45;;;;;;;18.80;4.20;;;12.10;99.90;;;;;;5095254;28;20474;-66
2023/11/19 08:55:13;;;;;;;18.20;5.13;;;12.10;99.90;;;;;;5095759;28;20462;-65
2023/11/19 08:57:40;;;;;;;18.50;4.40;;;12.10;99.90;;;;;;5095458;28;20442;-66
2023/11/19 09:00:08;;;;;;;18.33;4.07;;;12.10;99.90;;;;;;5099798;28;20785;-66
2023/11/19 09:02:36;;;;;;;18.93;4.67;;;12.10;99.90;;;;;;5097875;28;20785;-66
2023/11/19 09:05:05;;;;;;;18.73;5.07;;;12.20;99.90;;;;;;5098409;28;20462;-65
2023/11/19 09:07:32;;;;;;;14.73;4.17;;;12.20;99.90;;;;;;5098596;28;20442;-65
2023/11/19 09:09:59;;;;;;;13.30;4.40;;;12.30;99.90;;;;;;5098245;28;20446;-66
2023/11/19 09:12:26;;;;;;;14.10;3.93;;;12.40;99.90;;;;;;5097803;28;20484;-65
2023/11/19 09:14:52;;;;;;;20.03;5.57;;;12.40;99.90;;;;;;5098847;28;20454;-65
2023/11/19 09:17:19;;;;;;;15.30;4.03;;;12.40;99.90;;;;;;5098573;28;20452;-66
2023/11/19 09:19:46;;;;;;;18.63;5.17;;;12.40;99.90;;;;;;5098315;28;20438;-65
2023/11/19 09:22:14;;;;;;;18.13;4.53;;;12.40;99.90;;;;;;5097980;28;20438;-66
2023/11/19 09:24:41;;;;;;;14.50;4.83;;;12.30;99.90;;;;;;5099909;28;20462;-66
2023/11/19 09:27:08;;;;;;;18.10;4.50;;;12.30;99.90;;;;;;5100101;28;20446;-66
2023/11/19 09:29:34;;;;;;;14.87;4.00;;;12.30;99.90;;;;;;5099584;28;20453;-65
2023/11/19 09:32:01;;;;;;;21.50;5.00;;;12.40;99.90;;;;;;5099707;28;20438;-67
2023/11/19 09:34:28;;;;;;;13.37;3.90;;;12.50;99.90;;;;;;5097681;28;20953;-66
2023/11/19 09:36:55;;;;;;;16.40;5.07;;;12.50;99.90;;;;;;5097603;28;20461;-65
2023/11/19 09:39:25;;;;;;;16.17;5.67;;;12.50;99.90;;;;;;5097803;28;20452;-65
2023/11/19 09:41:52;;;;;;;15.57;3.70;;;12.50;99.90;;;;;;5097593;28;20819;-66
2023/11/19 09:44:19;;;;;;;12.97;4.33;;;12.50;99.90;;;;;;5097203;28;20468;-67
2023/11/19 09:46:48;;;;;;;12.83;4.53;;;12.50;99.90;;;;;;5096775;28;20853;-65
2023/11/19 09:49:18;;;;;;;16.80;3.83;;;12.50;99.90;;;;;;5096573;28;20989;-64
2023/11/19 09:51:44;;;;;;;14.87;4.23;;;12.50;99.90;;;;;;5096511;28;20445;-65
2023/11/19 09:54:12;;;;;;;17.00;4.60;;;12.50;99.90;;;;;;5096248;28;20478;-65
2023/11/19 09:56:41;;;;;;;15.27;5.40;;;12.60;99.90;;;;;;5096600;28;20443;-66
2023/11/19 09:59:10;;;;;;;30.40;4.77;;;12.60;99.90;;;;;;5097034;28;20446;-65
2023/11/19 10:01:39;;;;;;;15.97;3.90;;;12.70;99.90;;;;;;5096871;28;20453;-65
2023/11/19 10:04:07;;;;;;;16.10;4.70;;;12.70;99.90;;;;;;5096610;28;20473;-64
2023/11/19 10:06:34;;;;;;;20.30;4.47;;;12.70;99.90;;;;;;5098908;28;20434;-66
2023/11/19 10:09:01;;;;;;;16.13;4.27;;;12.60;99.90;;;;;;5101520;28;20438;-67
2023/11/19 10:11:27;;;;;;;20.90;4.60;;;12.60;99.90;;;;;;5099275;28;20541;-67
2023/11/19 10:13:56;;;;;;;14.97;4.73;;;12.60;99.90;;;;;;5097048;28;20477;-65
2023/11/19 10:16:29;;;;;;;14.43;4.17;;;12.50;99.90;;;;;;5098786;28;20438;-65
2023/11/19 10:18:57;;;;;;;19.13;4.63;;;12.50;99.90;;;;;;5102938;28;20433;-64
2023/11/19 10:21:24;;;;;;;12.03;3.80;;;12.60;99.90;;;;;;5105054;28;20439;-64
2023/11/19 10:23:52;;;;;;;16.70;3.90;;;12.60;99.90;;;;;;5104997;28;20445;-65
2023/11/19 10:26:19;;;;;;;16.23;4.50;;;12.60;99.90;;;;;;5096735;28;20991;-65
2023/11/19 10:28:47;;;;;;;14.60;4.00;;;12.60;99.90;;;;;;5097422;28;20442;-65
2023/11/19 10:31:16;;;;;;;15.70;3.97;;;12.60;99.90;;;;;;5096230;28;20439;-65
2023/11/19 10:33:44;;;;;;;14.80;4.00;;;12.60;99.90;;;;;;5096369;28;20565;-65
2023/11/19 10:36:13;;;;;;;12.43;4.70;;;12.60;99.90;;;;;;5096583;28;20473;-66
2023/11/19 10:38:40;;;;;;;10.30;3.70;;;12.60;99.90;;;;;;5096311;28;20445;-67
2023/11/19 10:41:07;;;;;;;15.30;5.63;;;12.60;99.90;;;;;;5097997;28;20434;-65
2023/11/19 10:43:44;;;;;;;13.97;3.63;;;12.70;99.90;;;;;;5099198;28;20441;-66
2023/11/19 10:46:12;;;;;;;13.63;3.13;;;12.70;99.90;;;;;;5099364;28;20465;-65
2023/11/19 10:48:41;;;;;;;21.47;5.40;;;12.70;99.90;;;;;;5097768;28;20465;-66
2023/11/19 10:51:10;;;;;;;15.97;4.63;;;12.70;99.90;;;;;;5099578;28;20449;-67
2023/11/19 10:53:38;;;;;;;16.30;3.60;;;12.70;99.90;;;;;;5097260;28;20485;-66
2023/11/19 10:56:11;;;;;;;16.77;4.27;;;12.70;99.90;;;;;;5100723;28;20988;-66
2023/11/19 10:58:39;;;;;;;15.13;4.20;;;12.70;99.90;;;;;;5099861;28;20517;-66
2023/11/19 11:01:14;;;;;;;14.30;3.97;;;12.70;99.90;;;;;;5097777;28;20472;-66
2023/11/19 11:03:42;;;;;;;12.80;3.47;;;12.60;99.90;;;;;;5096267;28;20798;-65
2023/11/19 11:06:10;;;;;;;15.17;4.10;;;12.60;99.90;;;;;;5097977;28;20477;-66
2023/11/19 11:08:38;;;;;;;11.50;3.67;;;12.60;99.90;;;;;;5101734;28;20442;-64
2023/11/19 11:11:07;;;;;;;14.07;3.60;;;12.70;99.90;;;;;;5105978;28;20454;-67
2023/11/19 11:13:34;;;;;;;14.83;4.87;;;12.80;99.90;;;;;;5101936;28;20467;-65
2023/11/19 11:16:04;;;;;;;11.23;4.03;;;12.80;99.90;;;;;;5096893;28;20488;-65
2023/11/19 11:18:31;;;;;;;15.47;4.80;;;12.90;99.90;;;;;;5096079;28;20939;-66
2023/11/19 11:21:03;;;;;;;17.17;4.50;;;13.00;99.90;;;;;;5095625;28;20446;-66
2023/11/19 11:23:57;;;;;;;15.73;4.53;;;13.00;99.90;;;;;;5096536;28;20601;-67
2023/11/19 11:26:56;;;;;;;13.70;4.53;;;12.90;99.90;;;;;;5102136;28;20430;-66
2023/11/19 11:29:32;;;;;;;15.90;5.67;;;12.90;99.90;;;;;;5097589;28;20962;-65
2023/11/19 11:32:09;;;;;;;14.17;4.47;;;12.90;99.90;;;;;;5096556;28;20458;-65
2023/11/19 11:35:00;;;;;;;18.43;4.27;;;12.90;99.90;;;;;;5096524;28;21108;-67
2023/11/19 11:37:33;;;;;;;11.17;4.10;;;12.90;99.90;;;;;;5096859;28;20472;-66
2023/11/19 11:40:02;;;;;;;17.23;3.60;;;13.00;99.90;;;;;;5096108;28;20426;-65
2023/11/19 11:42:35;;;;;;;15.70;5.70;;;13.00;99.90;;;;;;5096116;28;20450;-66
2023/11/19 11:45:04;;;;;;;11.37;3.90;;;13.10;99.90;;;;;;5096316;28;20454;-66
2023/11/19 11:48:08;;;;;;;14.57;4.00;;;13.20;99.90;;;;;;5096828;28;20809;-67
2023/11/19 11:50:36;;;;;;;16.97;4.87;;;13.20;99.90;;;;;;5095723;28;20444;-66
2023/11/19 11:53:17;;;;;;;15.20;4.20;;;13.30;99.90;;;;;;5095807;28;20831;-65
2023/11/19 11:55:58;;;;;;;14.67;4.40;;;13.30;99.90;;;;;;5095382;28;20806;-65
2023/11/19 11:58:32;;;;;;;19.80;4.73;;;13.30;99.90;;;;;;5095731;28;20465;-66
2023/11/19 12:01:02;;;;;;;17.30;4.20;;;13.30;99.90;;;;;;5096258;28;20499;-69
2023/11/19 12:03:30;;;;;;;17.73;4.87;;;13.30;99.90;;;;;;5097588;28;20474;-67
2023/11/19 12:05:58;;;;;;;17.70;6.20;;;13.40;99.90;;;;;;5096920;28;20462;-66
2023/11/19 12:08:31;;;;;;;19.40;5.13;;;13.30;99.90;;;;;;5096644;28;20536;-65
2023/11/19 12:10:59;;;;;;;14.47;5.50;;;13.30;99.90;;;;;;5095337;28;20986;-65
2023/11/19 12:13:44;;;;;;;15.77;4.20;;;13.30;99.90;;;;;;5096099;28;20474;-65
2023/11/19 12:16:12;;;;;;;18.57;4.70;;;13.40;99.90;;;;;;5101130;28;20477;-67
2023/11/19 12:18:41;;;;;;;14.77;4.33;;;13.40;99.90;;;;;;5107424;28;20495;-66
2023/11/19 12:21:09;;;;;;;12.13;4.20;;;13.40;99.90;;;;;;5104213;28;20445;-65
2023/11/19 12:23:47;;;;;;;14.13;4.53;;;13.40;99.90;;;;;;5096342;28;20438;-66
2023/11/19 12:26:33;;;;;;;14.27;4.53;;;13.40;99.90;;;;;;5096051;28;20465;-67
2023/11/19 12:29:00;;;;;;;22.30;4.80;;;13.40;99.90;;;;;;5097220;28;20621;-66
2023/11/19 12:31:27;;;;;;;17.20;4.83;;;13.40;99.90;;;;;;5098446;28;20446;-67
2023/11/19 12:33:54;;;;;;;17.93;4.83;;;13.50;99.90;;;;;;5102790;28;20478;-66
2023/11/19 12:36:21;;;;;;;13.20;4.37;;;13.60;99.90;;;;;;5100761;28;20837;-64
2023/11/19 12:38:50;;;;;;;15.10;4.10;;;13.60;99.90;;;;;;5099762;28;20935;-66
2023/11/19 12:41:20;;;;;;;14.67;4.43;;;13.60;99.90;;;;;;5098851;28;20453;-67
2023/11/19 12:43:47;;;;;;;14.03;5.00;;;13.60;99.90;;;;;;5100543;28;20457;-65
2023/11/19 12:46:20;;;;;;;19.63;4.33;;;13.50;99.90;;;;;;5101702;28;20470;-65
2023/11/19 12:48:47;;;;;;;19.07;5.50;;;13.60;99.90;;;;;;5100415;28;20474;-66
2023/11/19 12:51:14;;;;;;;14.47;5.43;;;13.50;99.90;;;;;;5098673;28;20957;-66
2023/11/19 12:53:52;;;;;;;15.17;3.97;;;13.50;99.90;;;;;;5097922;28;20485;-67